Flight Track Log - Related Links

Times and Time Zones

All times are in EDT time to prevent confusion due to time zone crossing. See the EJM949 flight status page for this flight to view local times or setup timezone preferences in your user account.

Time Position Orientation Groundspeed Altitude Reporting Facility
EDT Latitude Longitude Course Direction KTS MPH feet Rate Location/Type
Thu 06:22:55 PM 37.6333 -122.4000 293° West 170 196 2,000  Level Northern Cal TRACON
Thu 06:23:55 PM 37.6500 -122.4500 293° West 206 237 3,000 600 Climbing Northern Cal TRACON
Thu 06:24:55 PM 37.6833 -122.5167 302° West 204 235 3,200 2,714 Climbing Northern Cal TRACON
Thu 06:26:01 PM 37.7333 -122.5333 345° North 193 222 8,700 3,857 Climbing Northern Cal TRACON
Thu 06:27:01 PM 37.8000 -122.5333 360° North 273 314 11,300 2,316 Climbing Northern Cal TRACON
Thu 06:27:55 PM 37.8167 -122.4333 78° East 356 410 13,100 2,758 Climbing Northern Cal TRACON
Thu 06:30:19 PM 37.8792 -122.1200 76° East 404 465 20,400 2,956 Climbing Oakland Center
Thu 06:31:20 PM 37.9050 -121.9758 77° East 419 482 23,200 2,488 Climbing Oakland Center
Thu 06:32:22 PM 37.9325 -121.8203 77° East 448 516 25,500 2,195 Climbing Oakland Center
Thu 06:33:23 PM 37.9600 -121.6614 78° East 460 529 27,700 2,262 Climbing Oakland Center
Thu 06:34:24 PM 37.9881 -121.4856 79° East 462 532 30,100 2,195 Climbing Oakland Center
Thu 06:35:26 PM 38.0153 -121.3292 77° East 459 528 32,200 2,000 Climbing Oakland Center
Thu 06:36:27 PM 38.0408 -121.1753 78° East 452 520 34,200 2,000 Climbing Oakland Center
Thu 06:37:29 PM 38.0644 -121.0206 79° East 451 519 36,300 2,195 Climbing Oakland Center
Thu 06:38:30 PM 38.0939 -120.8411 78° East 441 507 38,700 2,146 Climbing Oakland Center
Thu 06:39:32 PM 38.1158 -120.6958 79° East 427 491 40,700 1,902 Climbing Oakland Center
Thu 06:40:33 PM 38.1383 -120.5514 79° East 421 484 42,600 1,415 Climbing Oakland Center
Thu 06:41:35 PM 38.1606 -120.4050 79° East 422 486 43,600 780 Climbing Oakland Center
Thu 06:42:36 PM 38.1839 -120.2542 79° East 435 501 44,200 488 Climbing Oakland Center
Thu 06:43:38 PM 38.2103 -120.0939 78° East 459 528 44,600 390 Climbing Oakland Center
Thu 06:44:39 PM 38.2339 -119.9347 79° East 461 531 45,000 197 Climbing Oakland Center
Thu 06:45:40 PM 38.2628 -119.7414 79° East 467 537 45,000  Level Oakland Center
Thu 06:46:42 PM 38.2881 -119.5711 79° East 487 560 45,000  Level Oakland Center
Thu 06:47:43 PM 38.3089 -119.4178 80° East 497 572 45,000  Level Oakland Center
Thu 06:48:45 PM 38.3400 -119.2117 79° East 497 572 45,000  Level Oakland Center
Thu 06:49:46 PM 38.3639 -119.0403 80° East 495 570 45,000  Level Oakland Center
Thu 06:50:48 PM 38.3889 -118.8686 79° East 495 570 45,000  Level Oakland Center
Thu 06:51:49 PM 38.4128 -118.6936 80° East 504 580 45,000  Level Oakland Center
Thu 06:52:50 PM 38.4375 -118.5203 80° East 500 575 45,000  Level Oakland Center
Thu 06:53:52 PM 38.4617 -118.3467 80° East 499 574 45,000  Level Oakland Center
Thu 06:54:53 PM 38.4844 -118.1722 80° East 501 577 45,000  Level Oakland Center
Thu 06:55:55 PM 38.5078 -117.9989 80° East 499 574 45,000  Level Oakland Center
Thu 06:56:56 PM 38.5358 -117.7886 80° East 499 574 45,000  Level Oakland Center
Thu 06:57:58 PM 38.5594 -117.6089 80° East 506 582 45,000  Level Oakland Center
Thu 06:58:59 PM 38.5814 -117.4303 81° East 505 581 45,000  Level Oakland Center
Thu 07:00:01 PM 38.6039 -117.2511 81° East 506 582 45,000  Level Oakland Center
Thu 07:01:02 PM 38.6267 -117.0686 81° East 513 590 45,000  Level Oakland Center
Thu 07:02:03 PM 38.6492 -116.8903 81° East 507 583 45,000  Level Oakland Center
Thu 07:03:05 PM 38.6703 -116.7147 81° East 499 574 45,000  Level Oakland Center
Thu 07:04:06 PM 38.6922 -116.5369 81° East 502 578 45,000  Level Oakland Center
Thu 07:05:08 PM 38.7131 -116.3561 82° East 509 586 45,000  Level Oakland Center
Thu 07:06:09 PM 38.7342 -116.1753 81° East 512 589 45,000  Level Oakland Center
Thu 07:07:35 PM 38.7628 -115.9206 82° East 516 594 45,000  Level Salt Lake Center
Thu 07:08:37 PM 38.7836 -115.7392 82° East 514 592 45,000  Level Salt Lake Center
Thu 07:09:39 PM 38.8078 -115.5203 82° East 517 595 45,000  Level Salt Lake Center
Thu 07:10:40 PM 38.8281 -115.3489 81° East 516 594 45,000  Level Salt Lake Center
Thu 07:11:42 PM 38.8483 -115.1642 82° East 523 602 45,000  Level Salt Lake Center
Thu 07:12:44 PM 38.8686 -114.9806 82° East 521 600 45,000  Level Salt Lake Center
Thu 07:13:46 PM 38.8881 -114.7953 82° East 523 602 45,000  Level Salt Lake Center
Thu 07:14:47 PM 38.9117 -114.5714 82° East 526 605 45,000  Level Salt Lake Center
Thu 07:15:49 PM 38.9297 -114.3831 83° East 530 610 45,000  Level Salt Lake Center
Thu 07:16:51 PM 38.9483 -114.1942 83° East 533 613 45,000  Level Salt Lake Center
Thu 07:17:53 PM 38.9672 -114.0047 83° East 535 616 45,000  Level Salt Lake Center
Thu 07:18:54 PM 38.9858 -113.8161 83° East 534 615 45,000  Level Salt Lake Center
Thu 07:19:56 PM 39.0044 -113.6258 83° East 535 616 45,000  Level Salt Lake Center
Thu 07:20:58 PM 39.0225 -113.4358 83° East 536 617 45,000  Level Salt Lake Center
Thu 07:22:00 PM 39.0389 -113.2453 84° East 534 615 45,000  Level Salt Lake Center
Thu 07:23:02 PM 39.0592 -113.0147 83° East 540 621 45,000  Level Salt Lake Center
Thu 07:24:04 PM 39.0758 -112.8317 83° East 524 603 45,000  Level Salt Lake Center
Thu 07:25:05 PM 39.0925 -112.6408 84° East 533 613 45,000  Level Salt Lake Center
Thu 07:26:07 PM 39.1086 -112.4497 84° East 537 618 45,000  Level Salt Lake Center
Thu 07:27:09 PM 39.1250 -112.2619 84° East 531 611 45,000  Level Salt Lake Center
Thu 07:28:11 PM 39.1394 -112.0728 84° East 531 611 45,000  Level Salt Lake Center
Thu 07:29:13 PM 39.1547 -111.8811 84° East 536 617 45,000  Level Salt Lake Center
Thu 07:30:14 PM 39.1725 -111.6500 84° East 541 623 45,000  Level Salt Lake Center
Thu 07:31:16 PM 39.1869 -111.4569 84° East 541 623 45,000  Level Salt Lake Center
Thu 07:32:18 PM 39.2022 -111.2600 84° East 544 626 45,000  Level Salt Lake Center
Thu 07:33:20 PM 39.2142 -111.0711 85° East 551 634 45,000  Level Salt Lake Center
Thu 07:34:21 PM 39.2294 -110.8564 85° East 540 621 45,000  Level Salt Lake Center
Thu 07:35:23 PM 39.2428 -110.6733 85° East 538 619 45,000  Level Salt Lake Center
Thu 07:36:25 PM 39.2581 -110.4597 85° East 536 617 45,000  Level Salt Lake Center
Thu 07:37:27 PM 39.2692 -110.2756 85° East 538 619 45,000  Level Salt Lake Center
Thu 07:38:29 PM 39.2833 -110.0628 85° East 534 615 45,000  Level Salt Lake Center
Thu 07:39:30 PM 39.2939 -109.8831 86° East 529 609 45,000  Level Salt Lake Center
Thu 07:40:32 PM 39.3056 -109.7033 85° East 527 606 45,000  Level Salt Lake Center
Thu 07:41:34 PM 39.3181 -109.4919 86° East 529 609 45,000  Level Salt Lake Center
Thu 07:42:36 PM 39.3272 -109.3092 86° East 533 613 45,000 -537 Level Salt Lake Center
Thu 07:43:37 PM 39.3422 -109.0981 85° East 532 612 43,900 -1,659 Descending Salt Lake Center
Thu 07:44:39 PM 39.3794 -108.9183 75° East 546 628 41,600 -2,468 Descending Salt Lake Center
Thu 07:45:41 PM 39.4208 -108.7072 76° East 550 633 38,800 -2,565 Descending Salt Lake Center
Thu 07:46:43 PM 39.4569 -108.5239 76° East 555 639 36,300 -2,585 Descending Salt Lake Center
Thu 07:47:44 PM 39.4989 -108.3092 76° East 558 642 33,500 -2,537 Descending Salt Lake Center
Thu 07:48:46 PM 39.5333 -108.1264 76° East 552 635 31,100 -2,776 Descending Salt Lake Center
Thu 07:50:11 PM 39.5853 -107.8547 76° East 545 627 26,700 -2,408 Descending Denver Center
Thu 07:51:13 PM 39.6233 -107.6539 76° East 512 589 25,200 -1,548 Descending Denver Center
Thu 07:52:15 PM 39.6500 -107.5081 77° East 445 512 23,500 -2,274 Descending Denver Center
Thu 07:53:17 PM 39.6756 -107.3567 78° East 391 450 20,500 -2,952 Descending Denver Center
Thu 07:54:19 PM 39.6517 -107.2417 105° East 353 406 17,400 -1,742 Descending Denver Center
Thu 07:55:21 PM 39.5858 -107.1803 144° Southeast 302 348 16,900 -242 Descending Denver Center
Thu 07:56:23 PM 39.5581 -107.0969 113° Southeast 271 312 16,900  Level Denver Center
Thu 07:57:25 PM 39.5881 -107.0067 67° East 283 326 16,900  Level Denver Center
Thu 07:58:27 PM 39.6494 -106.9408 40° Northeast 293 337 16,900  Level Denver Center
Thu 07:59:30 PM 39.6597 -107.0033 282° West 227 261 16,900 -624 Level Denver Center
Thu 08:00:32 PM 39.5967 -107.0211 192° South 210 242 15,600 -968 Descending Denver Center
Thu 08:01:34 PM 39.5444 -107.0236 182° South 199 229 14,900 -581 Descending Denver Center
Thu 08:02:36 PM 39.4972 -107.0003 159° South 183 211 14,400 -1,065 Descending Denver Center
Thu 08:03:38 PM 39.4414 -106.9761 162° South 177 204 12,700 -1,355 Descending Denver Center
Thu 08:04:40 PM 39.4036 -106.9611 163° South 164 189 11,600 -1,065 Descending Denver Center
Thu 08:05:42 PM 39.3653 -106.9456 163° South 152 175 10,500 -1,016 Descending Denver Center
Thu 08:06:44 PM 39.3256 -106.9311 164° South 150 173 9,500 -919 Descending Denver Center
Thu 08:07:46 PM 39.2858 -106.9008 149° Southeast 145 167 8,600 -532 Descending Denver Center
Thu 08:08:48 PM 39.2506 -106.8728 148° Southeast 146 168 8,400 -194 Descending Denver Center

Login

Don't have an account? Register now (free) for customized features, flight alerts, and more!